createdAt,value
2023-03-17T00:01:54.722Z,1100.97
2023-03-17T00:04:26.553Z,1097.30
2023-03-17T00:06:54.416Z,1097.03
2023-03-17T00:09:22.247Z,1088.90
2023-03-17T00:11:49.986Z,1100.60
2023-03-17T00:14:17.065Z,1054.80
2023-03-17T00:16:51.865Z,1071.47
2023-03-17T00:19:29.943Z,1079.32
2023-03-17T00:21:58.899Z,1081.78
2023-03-17T00:24:25.939Z,1084.85
2023-03-17T00:26:53.206Z,1059.28
2023-03-17T00:29:20.337Z,1072.55
2023-03-17T00:31:47.235Z,1078.22
2023-03-17T00:34:18.148Z,1097.80
2023-03-17T00:36:49.646Z,1089.78
2023-03-17T00:39:17.141Z,1094.00
2023-03-17T00:41:44.069Z,1086.10
2023-03-17T00:44:11.795Z,1090.23
2023-03-17T00:46:39.327Z,1099.00
2023-03-17T00:51:45.813Z,1089.13
2023-03-17T00:54:16.210Z,1094.15
2023-03-17T00:56:44.187Z,1081.90
2023-03-17T00:59:20.737Z,1090.75
2023-03-17T01:01:48.854Z,1092.85
2023-03-17T01:04:15.968Z,1089.80
2023-03-17T01:06:43.176Z,1096.38
2023-03-17T01:09:16.719Z,1089.00
2023-03-17T01:11:44.110Z,1087.47
2023-03-17T01:14:12.299Z,1058.45
2023-03-17T01:16:39.574Z,1075.72
2023-03-17T01:19:06.906Z,1085.13
2023-03-17T01:21:33.644Z,1082.23
2023-03-17T01:24:00.577Z,1076.70
2023-03-17T01:26:27.885Z,1081.68
2023-03-17T01:28:54.673Z,1082.22
2023-03-17T01:31:23.410Z,1074.73
2023-03-17T01:33:51.229Z,1080.72
2023-03-17T01:36:18.405Z,1073.30
2023-03-17T01:38:47.961Z,1086.30
2023-03-17T01:41:14.851Z,1079.90
2023-03-17T01:43:41.635Z,1073.75
2023-03-17T01:46:14.034Z,1110.72
2023-03-17T01:49:05.637Z,1101.55
2023-03-17T01:51:51.228Z,1097.35
2023-03-17T01:54:30.528Z,1099.53
2023-03-17T01:57:01.971Z,1108.03
2023-03-17T01:59:33.685Z,1111.10
2023-03-17T02:02:08.531Z,1116.25
2023-03-17T02:04:35.875Z,1110.17
2023-03-17T02:07:05.032Z,1104.13
2023-03-17T02:09:34.011Z,1107.85
2023-03-17T02:12:02.352Z,1104.25
2023-03-17T02:14:29.986Z,1107.15
2023-03-17T02:16:57.322Z,1107.57
2023-03-17T02:19:24.313Z,1110.03
2023-03-17T02:21:54.952Z,1107.77
2023-03-17T02:24:24.870Z,1116.38
2023-03-17T02:26:54.398Z,1105.70
2023-03-17T02:29:24.210Z,1110.72
2023-03-17T02:31:51.209Z,1115.10
2023-03-17T02:34:18.208Z,1118.07
2023-03-17T02:36:46.181Z,1125.47
2023-03-17T02:39:15.340Z,1120.47
2023-03-17T02:41:42.420Z,1117.85
2023-03-17T02:44:09.274Z,1122.95
2023-03-17T02:46:36.113Z,1109.40
2023-03-17T02:49:03.738Z,1087.80
2023-03-17T02:51:30.810Z,1096.97
2023-03-17T02:53:57.647Z,913.47
2023-03-17T02:56:24.666Z,1114.38
2023-03-17T02:58:51.952Z,1112.30
2023-03-17T03:01:18.794Z,1114.73
2023-03-17T03:03:45.946Z,1122.18
2023-03-17T03:06:12.846Z,1133.20
2023-03-17T03:08:39.581Z,1126.68
2023-03-17T03:11:06.420Z,1128.50
2023-03-17T03:13:33.200Z,1133.03
2023-03-17T03:16:00.180Z,1133.80
2023-03-17T03:18:27.291Z,1120.18
2023-03-17T03:20:54.069Z,1119.85
2023-03-17T03:23:21.636Z,1121.75
2023-03-17T03:25:48.666Z,1116.32
2023-03-17T03:28:15.593Z,1120.82
2023-03-17T03:30:44.606Z,999.67
2023-03-17T03:33:14.102Z,1105.05
2023-03-17T03:35:41.137Z,1106.75
2023-03-17T03:38:08.428Z,924.15
2023-03-17T03:40:36.912Z,665.73
2023-03-17T03:43:16.235Z,516.47
2023-03-17T03:45:48.859Z,449.63
2023-03-17T03:48:16.109Z,1079.97
2023-03-17T03:50:42.837Z,863.58
2023-03-17T03:53:09.933Z,829.30
2023-03-17T03:55:37.131Z,1088.97
2023-03-17T03:58:03.956Z,1100.40
2023-03-17T04:00:32.203Z,1114.53
2023-03-17T04:03:00.232Z,1102.43
2023-03-17T04:05:27.108Z,1089.85
2023-03-17T04:07:54.105Z,1108.80
2023-03-17T04:10:21.198Z,1116.28
2023-03-17T04:12:47.972Z,1113.80
2023-03-17T04:15:17.228Z,1118.07
2023-03-17T04:17:44.397Z,453.08
2023-03-17T04:20:14.099Z,1098.40
2023-03-17T04:22:42.166Z,1063.25
2023-03-17T04:25:10.990Z,1079.20
2023-03-17T04:27:37.906Z,330.00
2023-03-17T04:30:06.006Z,310.17
2023-03-17T04:32:33.131Z,1105.15
2023-03-17T04:34:59.966Z,936.77
2023-03-17T04:37:26.770Z,1113.82
2023-03-17T04:39:55.044Z,1108.15
2023-03-17T04:42:21.913Z,1110.28
2023-03-17T04:44:48.741Z,1116.75
2023-03-17T04:47:15.566Z,1117.72
2023-03-17T04:49:42.379Z,1113.70
2023-03-17T04:52:09.280Z,1103.25
2023-03-17T04:54:37.049Z,1107.88
2023-03-17T04:57:03.857Z,1113.18
2023-03-17T04:59:30.748Z,1120.82
2023-03-17T05:01:57.556Z,1112.83
2023-03-17T05:04:31.532Z,846.97
2023-03-17T05:06:59.462Z,756.90
2023-03-17T05:09:28.570Z,1097.10
2023-03-17T05:11:55.933Z,260.75
2023-03-17T05:14:22.720Z,187.70
2023-03-17T05:16:50.485Z,98.32
2023-03-17T05:19:18.144Z,23.98
2023-03-17T05:21:45.369Z,58.60
2023-03-17T05:24:12.481Z,62.63
2023-03-17T05:26:39.838Z,70.10
2023-03-17T05:29:07.147Z,46.63
2023-03-17T05:31:34.076Z,52.97
2023-03-17T05:34:01.084Z,36.15
2023-03-17T05:36:28.150Z,30.13
2023-03-17T05:38:55.432Z,59.72
2023-03-17T05:41:22.926Z,36.65
2023-03-17T05:43:49.731Z,11.00
2023-03-17T05:46:18.014Z,10.02
2023-03-17T05:48:46.999Z,1.70
2023-03-17T05:51:13.740Z,4.80
2023-03-17T05:53:41.609Z,2.22
2023-03-17T05:56:09.224Z,2.15
2023-03-17T05:58:36.454Z,520.08
2023-03-17T06:01:03.350Z,474.20
2023-03-17T06:03:30.419Z,587.03
2023-03-17T06:05:57.348Z,750.63
2023-03-17T06:08:24.130Z,803.67
2023-03-17T06:10:51.405Z,738.75
2023-03-17T06:13:18.086Z,609.27
2023-03-17T06:15:47.910Z,307.92
2023-03-17T06:18:14.685Z,328.27
2023-03-17T06:20:41.510Z,318.02
2023-03-17T06:23:08.352Z,327.63
2023-03-17T06:25:35.753Z,220.00
2023-03-17T06:28:04.195Z,457.27
2023-03-17T06:30:35.244Z,574.25
2023-03-17T06:33:02.774Z,625.15
2023-03-17T06:35:31.003Z,591.45
2023-03-17T06:37:58.049Z,570.03
2023-03-17T06:40:24.972Z,510.70
2023-03-17T06:42:52.254Z,503.63
2023-03-17T06:45:19.077Z,486.30
2023-03-17T06:47:46.271Z,655.50
2023-03-17T06:50:13.326Z,629.28
2023-03-17T06:52:40.735Z,482.95
2023-03-17T06:55:08.574Z,344.20
2023-03-17T06:57:35.843Z,490.20
2023-03-17T07:00:06.223Z,499.02
2023-03-17T07:02:33.934Z,487.08
2023-03-17T07:05:01.384Z,619.00
2023-03-17T07:07:28.170Z,777.00
2023-03-17T07:09:54.975Z,746.28
2023-03-17T07:12:22.010Z,951.80
2023-03-17T07:14:48.825Z,1034.97
2023-03-17T07:17:15.661Z,1060.22
2023-03-17T07:19:42.537Z,912.15
2023-03-17T07:22:12.046Z,809.43
2023-03-17T07:24:39.496Z,783.95
2023-03-17T07:27:06.311Z,805.40
2023-03-17T07:29:33.912Z,1083.22
2023-03-17T07:32:01.323Z,545.15
2023-03-17T07:34:28.830Z,134.57
2023-03-17T07:36:55.486Z,586.50
2023-03-17T07:39:22.204Z,554.67
2023-03-17T07:41:52.868Z,285.75
2023-03-17T07:44:19.842Z,421.03
2023-03-17T07:46:46.626Z,408.38
2023-03-17T07:49:13.949Z,457.35
2023-03-17T07:51:43.090Z,534.05
2023-03-17T07:54:14.752Z,518.40
2023-03-17T07:56:47.681Z,546.92
2023-03-17T07:59:15.224Z,588.60
2023-03-17T08:01:42.118Z,636.90
2023-03-17T08:04:10.654Z,713.50
2023-03-17T08:06:38.470Z,824.30
2023-03-17T08:09:05.284Z,774.55
2023-03-17T08:11:32.055Z,785.70
2023-03-17T08:13:59.939Z,912.42
2023-03-17T08:16:26.738Z,844.97
2023-03-17T08:18:53.484Z,689.13
2023-03-17T08:21:20.433Z,537.88
2023-03-17T08:23:48.491Z,519.33
2023-03-17T08:26:15.852Z,356.15
2023-03-17T08:28:43.018Z,255.50
2023-03-17T08:31:13.940Z,293.77
2023-03-17T08:33:42.999Z,318.95
2023-03-17T08:36:11.266Z,373.63
2023-03-17T08:38:40.024Z,437.30
2023-03-17T08:41:12.369Z,825.83
2023-03-17T08:43:40.081Z,426.13
2023-03-17T08:46:20.653Z,208.30
2023-03-17T08:48:49.482Z,220.57
2023-03-17T08:51:18.971Z,221.40
2023-03-17T08:53:46.995Z,253.05
2023-03-17T08:56:14.659Z,36.97
2023-03-17T08:58:42.523Z,219.90
2023-03-17T09:01:10.758Z,322.45
2023-03-17T09:03:39.269Z,372.73
2023-03-17T09:06:07.612Z,291.75
2023-03-17T09:08:35.411Z,291.98
2023-03-17T09:11:05.206Z,260.85
2023-03-17T09:13:33.130Z,391.30
2023-03-17T09:16:01.253Z,419.27
2023-03-17T09:18:28.163Z,334.75
2023-03-17T09:20:54.903Z,305.38
2023-03-17T09:23:23.189Z,351.27
2023-03-17T09:25:49.980Z,687.58
2023-03-17T09:28:17.375Z,469.95
2023-03-17T09:30:44.496Z,398.92
2023-03-17T09:33:12.115Z,345.57
2023-03-17T09:35:40.049Z,159.02
2023-03-17T09:38:08.184Z,510.42
2023-03-17T09:41:21.203Z,547.55
2023-03-17T09:44:18.883Z,31.45
2023-03-17T09:47:00.760Z,619.88
2023-03-17T09:49:52.248Z,562.70
2023-03-17T09:52:25.530Z,492.33
2023-03-17T09:54:52.583Z,267.75
2023-03-17T09:57:34.160Z,477.60
2023-03-17T10:00:06.429Z,451.77
2023-03-17T10:02:37.621Z,467.65
2023-03-17T10:05:22.556Z,449.77
2023-03-17T10:07:57.777Z,467.23
2023-03-17T10:10:42.410Z,630.80
2023-03-17T10:13:47.049Z,559.15
2023-03-17T10:16:19.483Z,497.33
2023-03-17T10:18:52.977Z,653.13
2023-03-17T10:21:25.849Z,226.98
2023-03-17T10:23:54.280Z,88.93
2023-03-17T10:26:39.655Z,451.48
2023-03-17T10:29:13.929Z,563.17
2023-03-17T10:31:40.742Z,660.67
2023-03-17T10:34:19.972Z,558.25
2023-03-17T10:36:51.361Z,259.80
2023-03-17T10:39:20.830Z,256.10
2023-03-17T10:42:08.979Z,278.02
2023-03-17T10:44:42.015Z,409.95
2023-03-17T10:47:20.427Z,406.08
2023-03-17T10:49:47.957Z,607.67
2023-03-17T10:52:31.011Z,557.35
2023-03-17T10:55:05.436Z,982.00
2023-03-17T10:57:35.844Z,804.92
2023-03-17T11:00:04.930Z,412.58
2023-03-17T11:02:42.962Z,223.63
2023-03-17T11:05:28.859Z,691.88
2023-03-17T11:08:18.584Z,679.88
2023-03-17T11:10:45.703Z,950.08
2023-03-17T11:13:18.356Z,580.97
2023-03-17T11:15:51.383Z,1020.10
2023-03-17T11:18:33.393Z,974.67
2023-03-17T11:21:06.781Z,845.55
2023-03-17T11:23:47.136Z,897.90
2023-03-17T11:26:26.152Z,799.60
2023-03-17T11:29:19.714Z,782.53
2023-03-17T11:32:08.013Z,575.85
2023-03-17T11:34:34.735Z,1000.90
2023-03-17T11:37:11.672Z,651.03
2023-03-17T11:40:07.684Z,416.35
2023-03-17T11:43:04.020Z,461.98
2023-03-17T11:45:40.777Z,311.83
2023-03-17T11:48:19.751Z,257.30
2023-03-17T11:50:46.719Z,219.67
2023-03-17T11:53:46.266Z,279.17
2023-03-17T11:56:20.128Z,239.05
2023-03-17T11:58:54.394Z,297.00
2023-03-17T12:01:48.226Z,286.48
2023-03-17T12:04:30.466Z,411.55
2023-03-17T12:07:08.566Z,384.15
2023-03-17T12:09:43.321Z,387.52
2023-03-17T12:12:13.794Z,495.27
2023-03-17T12:14:48.381Z,403.98
2023-03-17T12:17:36.528Z,285.30
2023-03-17T12:20:27.868Z,336.90
2023-03-17T12:23:01.251Z,842.75
2023-03-17T12:25:33.971Z,930.90
2023-03-17T12:28:03.799Z,915.85
2023-03-17T12:30:35.244Z,808.03
2023-03-17T12:33:10.669Z,882.33
2023-03-17T12:35:40.873Z,1038.47
2023-03-17T12:38:25.375Z,906.35
2023-03-17T12:41:24.249Z,1004.95
2023-03-17T12:44:05.900Z,1049.45
2023-03-17T12:47:00.341Z,1036.97
2023-03-17T12:49:38.884Z,1129.15
2023-03-17T12:52:31.916Z,1090.82
2023-03-17T12:55:01.881Z,1022.70
2023-03-17T12:57:37.452Z,780.35
2023-03-17T13:00:18.369Z,936.17
2023-03-17T13:03:07.045Z,1142.75
2023-03-17T13:05:37.223Z,1124.82
2023-03-17T13:08:10.735Z,1156.03
2023-03-17T13:10:48.036Z,1093.37
2023-03-17T13:13:52.204Z,1155.72
2023-03-17T13:16:33.247Z,849.25
2023-03-17T13:19:07.673Z,727.57
2023-03-17T13:21:36.428Z,690.70
2023-03-17T13:24:20.403Z,870.17
2023-03-17T13:27:01.770Z,748.10
2023-03-17T13:29:32.168Z,731.85
2023-03-17T13:32:17.064Z,715.30
2023-03-17T13:34:52.904Z,738.15
2023-03-17T13:37:39.310Z,755.20
2023-03-17T13:40:11.059Z,729.05
2023-03-17T13:42:59.057Z,746.90
2023-03-17T13:45:44.053Z,627.00
2023-03-17T13:48:29.407Z,476.52
2023-03-17T13:51:02.216Z,463.02
2023-03-17T13:53:33.124Z,587.40
2023-03-17T13:56:12.306Z,663.38
2023-03-17T13:59:02.260Z,763.97
2023-03-17T14:01:32.505Z,585.83
2023-03-17T14:04:03.031Z,714.45
2023-03-17T14:06:31.636Z,600.88
2023-03-17T14:09:09.837Z,399.25
2023-03-17T14:11:39.197Z,567.90
2023-03-17T14:14:26.075Z,647.45
2023-03-17T14:17:12.055Z,572.75
2023-03-17T14:19:41.553Z,384.08
2023-03-17T14:22:23.883Z,569.97
2023-03-17T14:24:55.539Z,521.03
2023-03-17T14:27:24.259Z,447.88
2023-03-17T14:29:52.209Z,468.40
2023-03-17T14:32:21.841Z,469.00
2023-03-17T14:34:57.965Z,451.07
2023-03-17T14:37:25.361Z,520.03
2023-03-17T14:39:55.283Z,429.60
2023-03-17T14:42:30.991Z,426.17
2023-03-17T14:45:38.388Z,446.65
2023-03-17T14:48:05.360Z,372.67
2023-03-17T14:50:32.732Z,378.92
2023-03-17T14:53:00.764Z,256.05
2023-03-17T14:55:56.251Z,287.80
2023-03-17T14:58:46.095Z,309.15
2023-03-17T15:01:17.388Z,291.42
2023-03-17T15:03:59.342Z,265.85
2023-03-17T15:06:31.054Z,267.23
2023-03-17T15:09:00.213Z,243.93
2023-03-17T15:11:36.750Z,247.35
2023-03-17T15:14:12.492Z,228.82
2023-03-17T15:16:41.456Z,146.67
2023-03-17T15:19:40.109Z,230.82
2023-03-17T15:22:30.471Z,222.57
2023-03-17T15:25:18.604Z,174.48
2023-03-17T15:27:45.657Z,202.05
2023-03-17T15:30:13.418Z,4.35
2023-03-17T15:32:40.702Z,3.60
2023-03-17T15:35:12.224Z,6.93
2023-03-17T15:37:39.167Z,117.22
2023-03-17T15:40:06.786Z,280.30
2023-03-17T15:42:35.670Z,165.80
2023-03-17T15:45:03.762Z,259.10
2023-03-17T15:47:36.880Z,294.50
2023-03-17T15:50:26.018Z,253.27
2023-03-17T15:52:58.968Z,263.63
2023-03-17T15:55:29.661Z,252.43
2023-03-17T15:57:57.792Z,268.85
2023-03-17T16:00:29.019Z,258.25
2023-03-17T16:02:59.553Z,271.35
2023-03-17T16:05:30.193Z,276.33
2023-03-17T16:07:57.250Z,306.83
2023-03-17T16:10:30.591Z,276.05
2023-03-17T16:12:57.840Z,309.90
2023-03-17T16:15:31.089Z,350.13
2023-03-17T16:18:00.405Z,277.93
2023-03-17T16:20:34.848Z,268.10
2023-03-17T16:23:07.810Z,274.23
2023-03-17T16:25:34.730Z,276.15
2023-03-17T16:28:12.689Z,227.50
2023-03-17T16:30:40.394Z,342.17
2023-03-17T16:33:15.672Z,662.65
2023-03-17T16:35:42.643Z,768.13
2023-03-17T16:38:14.559Z,550.08
2023-03-17T16:40:42.042Z,171.47
2023-03-17T16:43:25.143Z,40.00
2023-03-17T16:45:55.963Z,78.68
2023-03-17T16:48:23.089Z,91.70
2023-03-17T16:50:50.300Z,78.78
2023-03-17T16:53:17.476Z,213.00
2023-03-17T16:55:44.975Z,215.27
2023-03-17T16:58:26.314Z,166.70
2023-03-17T17:00:58.276Z,177.50
2023-03-17T17:03:25.447Z,187.83
2023-03-17T17:05:52.358Z,195.45
2023-03-17T17:08:19.124Z,26.10
2023-03-17T17:10:46.045Z,98.05
2023-03-17T17:13:13.278Z,212.57
2023-03-17T17:15:41.092Z,201.70
2023-03-17T17:18:17.633Z,206.68
2023-03-17T17:20:46.532Z,235.40
2023-03-17T17:23:16.472Z,241.48
2023-03-17T17:25:43.693Z,245.63
2023-03-17T17:28:11.296Z,285.08
2023-03-17T17:30:38.166Z,261.52
2023-03-17T17:33:05.319Z,35.42
2023-03-17T17:35:33.318Z,527.83
2023-03-17T17:38:01.616Z,981.40
2023-03-17T17:40:29.759Z,743.88
2023-03-17T17:42:57.624Z,1104.90
2023-03-17T17:45:25.002Z,1097.72
2023-03-17T17:47:51.718Z,1143.20
2023-03-17T17:50:26.011Z,1147.47
2023-03-17T17:52:52.880Z,1166.50
2023-03-17T17:55:19.918Z,1140.38
2023-03-17T17:57:46.740Z,1049.18
2023-03-17T18:00:16.664Z,1133.72
2023-03-17T18:02:44.159Z,1121.85
2023-03-17T18:05:12.300Z,963.83
2023-03-17T18:07:39.488Z,1141.97
2023-03-17T18:10:06.922Z,1122.38
2023-03-17T18:12:33.592Z,1119.03
2023-03-17T18:15:00.623Z,1139.15
2023-03-17T18:17:27.432Z,947.70
2023-03-17T18:19:54.381Z,759.75
2023-03-17T18:22:22.491Z,1053.68
2023-03-17T18:24:49.787Z,1156.47
2023-03-17T18:27:17.141Z,1169.90
2023-03-17T18:29:44.760Z,686.85
2023-03-17T18:32:12.281Z,800.10
2023-03-17T18:34:43.285Z,905.42
2023-03-17T18:37:13.564Z,790.53
2023-03-17T18:39:41.825Z,615.83
2023-03-17T18:42:09.149Z,713.22
2023-03-17T18:44:36.322Z,918.17
2023-03-17T18:47:03.792Z,844.90
2023-03-17T18:49:30.657Z,974.07
2023-03-17T18:51:59.428Z,1114.00
2023-03-17T18:54:27.644Z,790.33
2023-03-17T18:56:55.203Z,556.85
2023-03-17T18:59:21.981Z,441.00
2023-03-17T19:01:48.878Z,738.22
2023-03-17T19:04:16.036Z,749.22
2023-03-17T19:06:43.017Z,671.65
2023-03-17T19:09:10.717Z,1105.78
2023-03-17T19:11:39.213Z,980.70
2023-03-17T19:14:07.127Z,1145.40
2023-03-17T19:16:34.519Z,1129.28
2023-03-17T19:19:02.101Z,1091.63
2023-03-17T19:21:28.976Z,928.08
2023-03-17T19:23:59.778Z,755.13
2023-03-17T19:26:27.211Z,800.83
2023-03-17T19:28:56.204Z,261.42
2023-03-17T19:31:24.732Z,74.50
2023-03-17T19:33:51.915Z,89.32
2023-03-17T19:36:19.201Z,334.73
2023-03-17T19:38:46.228Z,171.25
2023-03-17T19:41:13.545Z,98.63
2023-03-17T19:43:41.725Z,268.45
2023-03-17T19:46:11.160Z,180.87
2023-03-17T19:48:38.534Z,354.60
2023-03-17T19:51:05.553Z,24.30
2023-03-17T19:53:32.370Z,185.63
2023-03-17T19:55:59.364Z,218.43
2023-03-17T19:58:26.915Z,169.13
2023-03-17T20:00:53.674Z,140.57
2023-03-17T20:03:20.524Z,78.85
2023-03-17T20:05:47.371Z,223.95
2023-03-17T20:08:14.691Z,265.85
2023-03-17T20:10:41.853Z,267.47
2023-03-17T20:13:08.640Z,407.80
2023-03-17T20:15:35.409Z,427.70
2023-03-17T20:18:02.596Z,411.98
2023-03-17T20:20:29.812Z,434.20
2023-03-17T20:22:57.266Z,460.42
2023-03-17T20:25:24.079Z,414.88
2023-03-17T20:27:51.021Z,507.43
2023-03-17T20:30:18.017Z,509.83
2023-03-17T20:32:45.106Z,450.33
2023-03-17T20:35:12.186Z,420.48
2023-03-17T20:37:39.409Z,496.20
2023-03-17T20:40:08.660Z,441.47
2023-03-17T20:42:35.935Z,482.38
2023-03-17T20:45:03.500Z,499.73
2023-03-17T20:47:30.991Z,516.75
2023-03-17T20:49:59.420Z,386.00
2023-03-17T20:52:29.956Z,387.33
2023-03-17T20:54:59.329Z,424.70
2023-03-17T20:57:26.257Z,410.48
2023-03-17T20:59:53.126Z,413.67
2023-03-17T21:02:20.691Z,308.55
2023-03-17T21:04:48.832Z,324.77
2023-03-17T21:07:17.671Z,325.77
2023-03-17T21:09:45.292Z,330.40
2023-03-17T21:12:20.433Z,364.10
2023-03-17T21:14:50.541Z,360.35
2023-03-17T21:17:17.966Z,541.37
2023-03-17T21:19:45.034Z,372.63
2023-03-17T21:22:12.453Z,418.67
2023-03-17T21:24:39.833Z,359.27
2023-03-17T21:27:09.850Z,329.67
2023-03-17T21:29:37.620Z,402.00
2023-03-17T21:32:06.738Z,344.60
2023-03-17T21:34:33.979Z,407.08
2023-03-17T21:37:01.254Z,341.55
2023-03-17T21:39:32.598Z,327.65
2023-03-17T21:42:01.202Z,329.02
2023-03-17T21:44:28.055Z,325.05
2023-03-17T21:46:56.346Z,254.57
2023-03-17T21:49:24.794Z,241.25
2023-03-17T21:51:51.605Z,261.65
2023-03-17T21:54:19.199Z,277.83
2023-03-17T21:56:46.231Z,290.13
2023-03-17T21:59:14.510Z,254.18
2023-03-17T22:01:43.520Z,284.70
2023-03-17T22:04:11.217Z,375.13
2023-03-17T22:06:38.011Z,383.13
2023-03-17T22:09:05.386Z,400.27
2023-03-17T22:11:32.314Z,225.23
2023-03-17T22:13:59.545Z,261.23
2023-03-17T22:16:26.606Z,206.38
2023-03-17T22:18:53.377Z,184.67
2023-03-17T22:21:21.403Z,148.80
2023-03-17T22:23:50.592Z,317.60
2023-03-17T22:26:19.828Z,283.98
2023-03-17T22:28:51.290Z,197.95
2023-03-17T22:31:23.541Z,160.50
2023-03-17T22:33:53.105Z,144.07
2023-03-17T22:36:20.140Z,142.37
2023-03-17T22:38:47.447Z,177.82
2023-03-17T22:41:23.452Z,166.07
2023-03-17T22:43:50.956Z,167.17
2023-03-17T22:46:20.484Z,169.73
2023-03-17T22:48:50.241Z,215.23
2023-03-17T22:51:19.920Z,238.40
2023-03-17T22:53:47.450Z,268.65
2023-03-17T22:56:15.817Z,306.85
2023-03-17T22:58:43.832Z,350.98
2023-03-17T23:01:12.359Z,350.20
2023-03-17T23:03:39.971Z,368.47
2023-03-17T23:06:07.712Z,446.88
2023-03-17T23:08:48.593Z,394.23
2023-03-17T23:11:24.772Z,339.50
2023-03-17T23:13:52.556Z,311.90
2023-03-17T23:16:20.154Z,305.98
2023-03-17T23:18:47.196Z,370.42
2023-03-17T23:21:42.006Z,375.00
2023-03-17T23:24:08.783Z,454.55
2023-03-17T23:26:36.923Z,392.60
2023-03-17T23:29:05.453Z,368.98
2023-03-17T23:31:35.135Z,307.35
2023-03-17T23:34:28.473Z,292.85
2023-03-17T23:36:55.248Z,273.95
2023-03-17T23:39:30.941Z,415.70
2023-03-17T23:42:05.513Z,348.98
2023-03-17T23:44:32.302Z,294.03
2023-03-17T23:47:08.598Z,350.85
2023-03-17T23:49:47.810Z,519.25
2023-03-17T23:52:22.683Z,488.08
2023-03-17T23:54:56.214Z,497.77
2023-03-17T23:57:31.706Z,557.22
2023-03-17T23:59:58.568Z,518.67
